Time;durP1;ratioP1;P1;durP2;ratioP2;P2;SDS_P1;SDS_P2;PMS_P1;PMS_P2;Temp;Humidity;BMP_temperature;BMP_pressure;BME280_temperature;BME280_humidity;BME280_pressure;Samples;Min_cycle;Max_cycle;Signal;HPM_P1;HPM_P2
2021/08/24 00:00:44;;;;;;;16.63;10.65;;;;;;;12.06;87.72;91301.75;5016878;28;20025;-87
2021/08/24 00:03:23;;;;;;;17.65;10.98;;;;;;;12.16;87.18;91296.09;4984951;28;20528;-87
2021/08/24 00:06:01;;;;;;;19.50;10.43;;;;;;;12.16;87.23;91298.72;5001673;28;20072;-86
2021/08/24 00:08:41;;;;;;;19.33;11.02;;;;;;;11.94;87.69;91295.44;5021324;28;20044;-87
2021/08/24 00:11:18;;;;;;;21.02;10.95;;;;;;;11.96;87.69;91301.09;5009573;28;20029;-86
2021/08/24 00:13:57;;;;;;;17.95;10.57;;;;;;;11.96;87.38;91288.03;4983789;28;20018;-87
2021/08/24 00:16:34;;;;;;;20.52;10.05;;;;;;;11.92;88.14;91295.00;4983310;28;20021;-87
2021/08/24 00:19:10;;;;;;;18.13;9.98;;;;;;;11.98;88.18;91282.50;4983168;28;20469;-86
2021/08/24 00:21:47;;;;;;;19.65;11.25;;;;;;;12.04;87.68;91291.63;4999334;28;20544;-87
2021/08/24 00:24:22;;;;;;;18.17;11.32;;;;;;;12.04;87.65;91286.41;4982792;28;20029;-86
2021/08/24 00:27:01;;;;;;;20.38;11.05;;;;;;;12.03;87.78;91291.97;4999314;28;20033;-87
2021/08/24 00:29:30;;;;;;;20.50;10.73;;;;;;;12.00;87.92;91290.00;4999059;28;20033;-87
2021/08/24 00:32:07;;;;;;;20.13;10.25;;;;;;;12.04;87.46;91288.25;5014674;28;20025;-86
2021/08/24 00:34:43;;;;;;;18.20;10.98;;;;;;;11.89;88.25;91293.03;5016119;28;20079;-86
2021/08/24 00:37:21;;;;;;;21.75;11.38;;;;;;;11.87;88.50;91292.63;4999318;28;20030;-84
2021/08/24 00:40:06;;;;;;;19.95;12.07;;;;;;;11.86;88.75;91288.47;5014265;28;20025;-86
2021/08/24 00:42:40;;;;;;;21.13;12.20;;;;;;;11.80;88.80;91278.53;4999396;28;20103;-87
2021/08/24 00:45:14;;;;;;;19.73;11.30;;;;;;;11.86;88.79;91285.09;4998483;28;20017;-87
2021/08/24 00:47:46;;;;;;;20.10;11.80;;;;;;;11.90;89.04;91284.09;4999139;28;20025;-85
2021/08/24 00:50:28;;;;;;;20.80;11.60;;;;;;;11.87;89.06;91284.00;4998461;28;20033;-87
2021/08/24 00:53:10;;;;;;;18.95;10.98;;;;;;;12.02;88.39;91290.44;5015441;28;20124;-86
2021/08/24 00:55:38;;;;;;;17.90;10.70;;;;;;;11.96;88.32;91288.03;5014547;28;20026;-87
2021/08/24 00:58:21;;;;;;;16.67;9.70;;;;;;;12.00;87.68;91282.16;4998794;28;20513;-85
2021/08/24 01:00:59;;;;;;;16.63;9.65;;;;;;;11.92;87.35;91286.41;5014563;28;20444;-86
2021/08/24 01:03:43;;;;;;;13.77;8.35;;;;;;;11.93;87.23;91299.13;5014626;28;20429;-86
2021/08/24 01:06:35;;;;;;;14.57;8.73;;;;;;;11.86;86.61;91291.06;5014848;28;20021;-86
2021/08/24 01:09:30;;;;;;;11.82;7.35;;;;;;;11.88;86.97;91283.69;5014581;28;20025;-86
2021/08/24 01:12:14;;;;;;;13.90;8.27;;;;;;;11.90;86.20;91289.34;5031621;28;20078;-86
2021/08/24 01:15:05;;;;;;;;;;;;;;;11.83;85.72;91290.94;5014827;28;20017;-86
2021/08/24 01:17:54;;;;;;;12.70;6.85;;;;;;;11.79;86.35;91282.22;5014390;28;20361;-86
2021/08/24 01:20:33;;;;;;;11.70;6.82;;;;;;;11.75;86.40;91286.59;4997553;28;20081;-86
2021/08/24 01:23:28;;;;;;;12.95;7.10;;;;;;;11.66;86.65;91287.47;5014251;28;20074;-86
2021/08/24 01:26:12;;;;;;;10.77;6.32;;;;;;;11.66;86.11;91284.06;5030109;28;20025;-87
2021/08/24 01:29:05;;;;;;;10.83;7.10;;;;;;;11.60;85.55;91267.09;5030187;28;20029;-85
2021/08/24 01:32:11;;;;;;;11.68;7.15;;;;;;;11.59;86.05;91282.00;5017292;28;20495;-87
2021/08/24 01:35:06;;;;;;;10.93;6.63;;;;;;;11.47;86.08;91272.28;5029916;28;20041;-86
2021/08/24 01:37:59;;;;;;;11.43;6.97;;;;;;;11.40;86.29;91266.84;5014827;28;20116;-86
2021/08/24 01:40:38;;;;;;;12.10;7.07;;;;;;;11.36;86.04;91257.38;5013862;28;20025;-87
2021/08/24 01:43:13;;;;;;;17.27;7.18;;;;;;;11.36;86.12;91265.97;4998978;28;20482;-87
2021/08/24 01:45:49;;;;;;;11.45;6.93;;;;;;;11.32;85.73;91259.88;4998448;28;20541;-87
2021/08/24 01:48:28;;;;;;;11.27;6.60;;;;;;;11.25;86.02;91265.63;4998158;28;20402;-86
2021/08/24 01:51:19;;;;;;;9.70;5.78;;;;;;;11.34;85.44;91262.94;4998310;28;20025;-87
2021/08/24 01:53:53;;;;;;;11.95;6.35;;;;;;;11.19;84.46;91260.94;4997506;28;20029;-86
2021/08/24 01:56:32;;;;;;;12.93;5.82;;;;;;;11.04;84.49;91262.31;5016174;28;20029;-86
2021/08/24 01:59:18;;;;;;;11.88;6.13;;;;;;;10.96;83.39;91252.72;5001379;28;20033;-86
2021/08/24 02:02:03;;;;;;;10.82;6.18;;;;;;;10.93;82.87;91254.13;5017744;28;20029;-86
2021/08/24 02:04:44;;;;;;;;;;;;;;;10.82;83.11;91257.47;5017343;28;20063;-87
2021/08/24 02:07:21;;;;;;;10.02;5.60;;;;;;;10.77;83.30;91263.63;5017410;28;19909;-86
2021/08/24 02:10:00;;;;;;;9.93;5.88;;;;;;;10.62;83.62;91256.41;4984830;28;20036;-86
2021/08/24 02:12:38;;;;;;;9.88;5.60;;;;;;;10.71;83.41;91257.09;5023783;28;20013;-88
2021/08/24 02:15:15;;;;;;;10.43;5.93;;;;;;;10.65;84.03;91259.13;5030885;28;20561;-87
2021/08/24 02:17:51;;;;;;;9.10;5.63;;;;;;;10.77;83.89;91256.56;5003961;28;20037;-87
2021/08/24 02:20:30;;;;;;;12.88;6.50;;;;;;;10.58;84.33;91263.34;5027567;28;20040;-87
2021/08/24 02:23:07;;;;;;;10.48;6.40;;;;;;;10.63;84.46;91263.88;5040150;28;20029;-87
2021/08/24 02:25:43;;;;;;;10.45;6.07;;;;;;;10.55;84.73;91258.75;5017288;28;20025;-86
2021/08/24 02:28:25;;;;;;;11.88;6.25;;;;;;;10.46;85.08;91264.81;5002248;28;20029;-85
2021/08/24 02:31:10;;;;;;;11.55;6.22;;;;;;;10.57;84.85;91259.97;5002742;28;20109;-86
2021/08/24 02:33:41;;;;;;;;;;;;;;;10.53;85.06;91267.66;5019407;28;20025;-86
2021/08/24 02:36:21;;;;;;;10.00;6.10;;;;;;;10.46;85.23;91256.22;5015828;28;20336;-87
2021/08/24 02:39:06;;;;;;;9.93;5.68;;;;;;;10.43;85.50;91270.66;4997453;28;20097;-87
2021/08/24 02:41:43;;;;;;;12.55;6.50;;;;;;;10.47;85.19;91273.38;4982917;28;20029;-86
2021/08/24 02:44:28;;;;;;;11.45;6.50;;;;;;;10.44;85.41;91268.78;4997751;28;20034;-84
2021/08/24 02:47:04;;;;;;;11.95;6.95;;;;;;;10.51;84.93;91267.19;4982323;28;20096;-86
2021/08/24 02:49:45;;;;;;;13.00;6.60;;;;;;;10.38;85.36;91265.59;4980942;28;20461;-86
2021/08/24 02:52:25;;;;;;;11.43;6.90;;;;;;;10.28;86.00;91268.59;4982595;28;20129;-87
2021/08/24 02:55:02;;;;;;;11.63;6.60;;;;;;;10.41;85.48;91275.41;4982488;28;20097;-86
2021/08/24 02:57:36;;;;;;;14.50;6.90;;;;;;;10.29;86.00;91272.72;4982526;28;20022;-86
2021/08/24 03:00:15;;;;;;;12.25;7.38;;;;;;;10.26;85.80;91268.91;4981842;28;20112;-86
2021/08/24 03:02:52;;;;;;;12.32;7.05;;;;;;;10.27;85.89;91264.47;4982608;28;20030;-87
2021/08/24 03:05:28;;;;;;;15.07;7.15;;;;;;;10.26;85.86;91278.56;4965974;28;20105;-87
2021/08/24 03:08:05;;;;;;;11.10;7.03;;;;;;;10.19;85.93;91268.63;4981771;28;20048;-86
2021/08/24 03:10:42;;;;;;;11.55;7.22;;;;;;;10.19;86.26;91268.63;4981851;28;20057;-86
2021/08/24 03:13:23;;;;;;;12.68;7.85;;;;;;;10.14;86.59;91265.44;4982456;28;20033;-88
2021/08/24 03:16:07;;;;;;;11.27;7.05;;;;;;;10.05;86.85;91273.31;5015121;28;20025;-86
2021/08/24 03:18:56;;;;;;;13.23;6.57;;;;;;;10.11;86.56;91266.09;4982662;28;20022;-86
2021/08/24 03:21:33;;;;;;;14.68;7.00;;;;;;;10.27;85.67;91259.25;4985304;28;20033;-87
2021/08/24 03:24:14;;;;;;;14.70;7.38;;;;;;;10.02;86.48;91269.47;4997323;28;20033;-86
2021/08/24 03:26:49;;;;;;;13.35;7.68;;;;;;;9.97;86.95;91267.06;4978958;28;20025;-86
2021/08/24 03:29:27;;;;;;;13.73;7.13;;;;;;;10.05;86.49;91263.66;5017043;28;20035;-86
2021/08/24 03:32:08;;;;;;;10.57;6.90;;;;;;;9.89;86.93;91273.06;5002606;28;20053;-86
2021/08/24 03:34:47;;;;;;;19.95;7.07;;;;;;;9.75;87.14;91264.72;5002244;28;20021;-86
2021/08/24 03:37:30;;;;;;;11.65;6.50;;;;;;;9.70;86.99;91265.66;5017953;28;20543;-86
2021/08/24 03:40:04;;;;;;;12.93;7.35;;;;;;;9.63;87.13;91262.03;4988335;28;20037;-86
2021/08/24 03:42:41;;;;;;;11.55;6.68;;;;;;;9.64;86.40;91266.16;4982656;28;20555;-87
2021/08/24 03:45:21;;;;;;;13.30;6.85;;;;;;;9.60;86.53;91266.00;4981597;28;20034;-87
2021/08/24 03:47:58;;;;;;;14.55;6.70;;;;;;;9.40;86.90;91259.69;4998349;28;20033;-87
2021/08/24 03:50:39;;;;;;;11.40;6.50;;;;;;;9.34;87.26;91274.69;4998145;28;20018;-87
2021/08/24 03:53:16;;;;;;;13.45;7.03;;;;;;;9.33;86.96;91275.00;4997668;28;20030;-86
2021/08/24 03:55:49;;;;;;;11.95;6.45;;;;;;;9.31;87.30;91271.94;5011243;28;20022;-87
2021/08/24 04:01:02;;;;;;;11.60;6.45;;;;;;;9.34;86.76;91281.72;5070130;28;20044;-87
2021/08/24 04:03:36;;;;;;;10.10;6.05;;;;;;;9.38;86.63;91282.63;5057411;28;20404;-88
2021/08/24 04:06:08;;;;;;;11.55;6.43;;;;;;;9.34;86.36;91286.94;5023312;28;20039;-87
2021/08/24 04:08:43;;;;;;;11.25;6.47;;;;;;;9.21;86.45;91282.69;5055835;28;20404;-87
2021/08/24 04:11:24;;;;;;;12.18;5.80;;;;;;;9.29;86.25;91281.88;5039792;28;20504;-87
2021/08/24 04:13:59;;;;;;;9.35;5.80;;;;;;;9.22;86.73;91284.19;5040026;28;20032;-87
2021/08/24 04:16:41;;;;;;;12.32;6.60;;;;;;;9.13;86.82;91286.81;5055291;28;20074;-87
2021/08/24 04:19:18;;;;;;;12.88;6.30;;;;;;;9.11;87.47;91288.97;5072506;28;20048;-87
2021/08/24 04:22:06;;;;;;;12.40;6.70;;;;;;;9.06;87.70;91282.09;5020696;28;20082;-87
2021/08/24 04:24:46;;;;;;;10.23;6.32;;;;;;;9.06;87.57;91276.91;5021978;28;20048;-87
2021/08/24 04:27:20;;;;;;;11.57;6.63;;;;;;;9.06;87.25;91284.69;5027772;28;20032;-86
2021/08/24 04:30:00;;;;;;;10.93;6.63;;;;;;;8.99;87.71;91289.59;5053864;28;20604;-87
2021/08/24 04:32:38;;;;;;;12.10;5.95;;;;;;;9.00;87.46;91287.75;5055667;28;20032;-87
2021/08/24 04:35:16;;;;;;;14.70;6.47;;;;;;;9.08;87.03;91292.97;5039238;28;20017;-87
2021/08/24 04:37:59;;;;;;;13.93;6.40;;;;;;;8.96;87.11;91279.06;5040222;28;20028;-87
2021/08/24 04:40:38;;;;;;;10.25;6.20;;;;;;;8.92;87.52;91283.34;5055527;28;20033;-87
2021/08/24 04:43:14;;;;;;;10.45;6.30;;;;;;;8.93;87.51;91279.66;5056484;28;20024;-87
2021/08/24 04:45:54;;;;;;;10.73;5.18;;;;;;;9.08;86.80;91279.19;5073121;28;20479;-87
2021/08/24 04:48:32;;;;;;;8.68;4.93;;;;;;;9.01;86.87;91279.66;5055419;28;20400;-87
2021/08/24 04:51:08;;;;;;;10.80;5.30;;;;;;;8.98;86.74;91284.72;5020488;28;20036;-87
2021/08/24 04:53:44;;;;;;;11.07;5.60;;;;;;;9.07;86.54;91294.00;4999652;28;20025;-87
2021/08/24 04:56:25;;;;;;;11.32;5.50;;;;;;;9.01;86.62;91290.06;5038852;28;20020;-87
2021/08/24 04:58:59;;;;;;;10.95;5.32;;;;;;;8.97;86.98;91290.97;5040364;28;20028;-87
2021/08/24 05:01:38;;;;;;;11.00;5.55;;;;;;;8.96;86.46;91295.41;5040738;28;20380;-88
2021/08/24 05:04:17;;;;;;;11.05;5.47;;;;;;;8.94;86.61;91292.38;5073064;28;20027;-91
2021/08/24 05:06:52;;;;;;;11.30;5.35;;;;;;;8.98;86.32;91293.28;5081474;28;20027;-91
2021/08/24 05:09:28;;;;;;;10.20;5.57;;;;;;;9.04;85.69;91289.44;5052370;28;20550;-87
2021/08/24 05:12:01;;;;;;;11.30;4.78;;;;;;;8.98;86.09;91297.72;5055748;28;20066;-87
2021/08/24 05:14:38;;;;;;;13.50;5.75;;;;;;;9.01;85.64;91295.28;5056673;28;20012;-87
2021/08/24 05:17:10;;;;;;;10.80;5.20;;;;;;;9.00;85.63;91293.72;5072954;28;20048;-87
2021/08/24 05:19:44;;;;;;;13.35;5.72;;;;;;;9.13;85.59;91302.44;5036192;28;20079;-87
2021/08/24 05:22:22;;;;;;;9.73;4.60;;;;;;;9.04;85.84;91299.06;5058986;28;20043;-87
2021/08/24 05:24:53;;;;;;;6.75;4.55;;;;;;;9.09;85.61;91293.72;5034945;28;20025;-87
2021/08/24 05:27:27;;;;;;;11.07;4.65;;;;;;;9.01;86.05;91287.47;5035200;28;20400;-87
2021/08/24 05:30:17;;;;;;;10.95;5.35;;;;;;;9.03;85.65;91293.09;5019034;28;20029;-87
2021/08/24 05:32:55;;;;;;;12.30;5.00;;;;;;;9.10;85.18;91292.63;5024673;28;20028;-87
2021/08/24 05:35:35;;;;;;;8.00;4.47;;;;;;;9.04;85.81;91294.63;5024446;28;20021;-87
2021/08/24 05:38:08;;;;;;;8.75;4.80;;;;;;;8.95;86.46;91296.50;5023099;28;20032;-87
2021/08/24 05:40:42;;;;;;;11.57;5.55;;;;;;;8.99;85.60;91294.03;5022076;28;20043;-87
2021/08/24 05:43:18;;;;;;;12.52;4.47;;;;;;;8.94;85.76;91289.78;5006377;28;20055;-89
2021/08/24 05:46:01;;;;;;;11.38;5.05;;;;;;;8.94;85.81;91289.78;5038447;28;20033;-87
2021/08/24 05:48:39;;;;;;;12.85;5.53;;;;;;;9.02;85.44;91293.44;5035538;28;20118;-87
2021/08/24 05:51:22;;;;;;;12.80;5.53;;;;;;;8.99;85.61;91289.59;5030047;28;20682;-86
2021/08/24 05:54:01;;;;;;;8.52;4.53;;;;;;;9.00;85.98;91288.53;5047177;28;20103;-87
2021/08/24 05:56:38;;;;;;;10.52;5.03;;;;;;;8.94;86.13;91287.19;5043024;28;20032;-87
2021/08/24 05:59:16;;;;;;;8.90;4.47;;;;;;;9.03;85.96;91290.50;5059523;28;20025;-88
2021/08/24 06:01:55;;;;;;;12.88;4.97;;;;;;;8.99;85.51;91289.59;5043002;28;20028;-87
2021/08/24 06:04:33;;;;;;;10.63;4.63;;;;;;;9.09;85.23;91291.13;5058912;28;20392;-86
2021/08/24 06:07:09;;;;;;;9.10;4.60;;;;;;;9.15;85.07;91296.91;5042990;28;20404;-87
2021/08/24 06:09:44;;;;;;;11.93;5.10;;;;;;;9.15;84.35;91289.09;5061033;28;20032;-86
2021/08/24 06:12:17;;;;;;;9.38;4.80;;;;;;;9.08;84.96;91297.38;5048664;28;20040;-85
2021/08/24 06:14:51;;;;;;;8.35;4.43;;;;;;;9.12;84.78;91287.13;5062304;28;20024;-85
2021/08/24 06:17:20;;;;;;;11.18;4.95;;;;;;;9.14;84.94;91284.97;5023721;28;20123;-86
2021/08/24 06:19:49;;;;;;;6.55;4.10;;;;;;;9.16;85.06;91286.22;5022412;28;20080;-86
2021/08/24 06:22:24;;;;;;;8.95;4.32;;;;;;;9.38;84.98;91282.63;5005537;28;20025;-86
2021/08/24 06:25:08;;;;;;;10.00;4.55;;;;;;;9.42;85.02;91280.16;5036932;28;20029;-87
2021/08/24 06:27:45;;;;;;;8.35;3.70;;;;;;;9.46;83.66;91270.66;5006569;28;20033;-87
2021/08/24 06:30:24;;;;;;;8.85;4.30;;;;;;;9.53;83.71;91273.53;5005680;28;20396;-87
2021/08/24 06:33:04;;;;;;;6.35;3.28;;;;;;;9.69;84.28;91271.19;5002525;28;20048;-88
2021/08/24 06:35:39;;;;;;;8.48;3.92;;;;;;;9.76;84.17;91280.03;5003421;28;20017;-87
2021/08/24 06:38:08;;;;;;;7.45;3.85;;;;;;;9.90;84.54;91269.41;5001846;28;20032;-87
2021/08/24 06:40:45;;;;;;;8.70;3.30;;;;;;;10.19;83.09;91273.84;5017380;28;20056;-87
2021/08/24 06:43:12;;;;;;;8.45;4.00;;;;;;;10.13;83.25;91279.53;5009557;28;20059;-87
2021/08/24 06:45:45;;;;;;;8.02;3.88;;;;;;;10.13;82.42;91279.53;5019943;28;20021;-87
2021/08/24 06:48:16;;;;;;;8.75;3.92;;;;;;;10.31;82.83;91275.78;5036712;28;20029;-87
2021/08/24 06:50:51;;;;;;;5.78;3.53;;;;;;;10.22;82.62;91273.19;5048517;28;20021;-87
2021/08/24 06:53:29;;;;;;;6.13;3.45;;;;;;;10.49;82.57;91271.19;5023552;28;20025;-87
2021/08/24 06:55:55;;;;;;;7.20;3.38;;;;;;;10.63;82.09;91273.56;5057447;28;20069;-87
2021/08/24 06:58:23;;;;;;;7.47;3.45;;;;;;;10.74;82.03;91278.06;5055955;28;20511;-87
2021/08/24 07:00:48;;;;;;;6.60;3.35;;;;;;;10.89;79.35;91279.31;5039957;28;20035;-87
2021/08/24 07:03:14;;;;;;;11.02;4.72;;;;;;;10.88;79.98;91277.78;5039879;28;20024;-88
2021/08/24 07:05:44;;;;;;;7.00;3.83;;;;;;;10.86;79.92;91261.72;5039582;28;20013;-88
2021/08/24 07:08:10;;;;;;;7.50;3.50;;;;;;;10.90;80.20;91273.03;5022779;28;20035;-88
2021/08/24 07:10:35;;;;;;;6.82;3.63;;;;;;;10.96;78.61;91258.72;5015307;28;20056;-87
2021/08/24 07:13:01;;;;;;;6.82;3.63;;;;;;;11.18;79.53;91267.25;4999576;28;20095;-87
2021/08/24 07:15:26;;;;;;;8.18;3.40;;;;;;;11.26;79.27;91266.38;5034023;28;20013;-87
2021/08/24 07:17:54;;;;;;;7.00;3.50;;;;;;;11.22;79.41;91265.50;5031048;28;20075;-88
2021/08/24 07:20:21;;;;;;;5.45;3.10;;;;;;;11.21;78.01;91264.75;5017837;28;20032;-86
2021/08/24 07:22:47;;;;;;;5.50;2.90;;;;;;;11.16;76.41;91270.16;5020497;28;20039;-87
2021/08/24 07:25:15;;;;;;;7.70;3.40;;;;;;;11.14;76.69;91267.13;5000050;28;20388;-87
2021/08/24 07:27:42;;;;;;;7.55;3.50;;;;;;;11.03;77.66;91267.84;5016557;28;20028;-87
2021/08/24 07:30:11;;;;;;;8.25;3.30;;;;;;;10.91;77.78;91271.94;5018464;28;20021;-89
2021/08/24 07:32:42;;;;;;;5.03;3.08;;;;;;;10.94;78.54;91260.88;5018444;28;20388;-87
2021/08/24 07:35:09;;;;;;;8.73;3.50;;;;;;;11.00;78.26;91261.44;5039216;28;20056;-87
2021/08/24 07:37:36;;;;;;;6.53;3.03;;;;;;;11.21;78.54;91261.38;5024619;28;20022;-88
2021/08/24 07:40:06;;;;;;;9.13;3.35;;;;;;;11.22;77.26;91266.28;5051884;28;20143;-87
2021/08/24 07:42:33;;;;;;;7.60;3.58;;;;;;;11.27;77.70;91262.69;5004922;28;20029;-87
2021/08/24 07:44:59;;;;;;;9.82;4.13;;;;;;;11.15;77.05;91265.28;5020525;28;20120;-87
2021/08/24 07:47:24;;;;;;;6.95;3.47;;;;;;;11.06;78.00;91257.56;5005703;28;20485;-88
2021/08/24 07:49:52;;;;;;;5.28;3.25;;;;;;;10.87;77.80;91263.22;5039495;28;20032;-86
2021/08/24 07:52:19;;;;;;;10.38;3.58;;;;;;;11.08;78.38;91260.59;5058071;28;20587;-87
2021/08/24 07:54:46;;;;;;;8.07;3.50;;;;;;;11.28;78.71;91269.44;5041808;28;20036;-87
2021/08/24 07:57:13;;;;;;;10.77;3.80;;;;;;;11.17;78.00;91273.56;5059950;28;20021;-86
2021/08/24 07:59:40;;;;;;;5.18;2.70;;;;;;;11.34;77.83;91273.38;5059423;28;20370;-87
2021/08/24 08:02:10;;;;;;;10.50;3.47;;;;;;;11.46;77.02;91276.00;5025534;28;20020;-86
2021/08/24 08:04:37;;;;;;;6.43;3.15;;;;;;;11.40;76.90;91277.28;5024803;28;20013;-86
2021/08/24 08:07:05;;;;;;;9.43;3.15;;;;;;;11.46;77.04;91276.00;5024570;28;20029;-85
2021/08/24 08:09:33;;;;;;;6.80;3.38;;;;;;;11.13;75.86;91283.09;5026333;28;20039;-88
2021/08/24 08:12:03;;;;;;;9.05;3.97;;;;;;;11.10;76.73;91276.69;5043648;28;20050;-86
2021/08/24 08:14:29;;;;;;;10.48;4.03;;;;;;;11.32;76.40;91283.38;5042727;28;20028;-88
2021/08/24 08:16:56;;;;;;;7.57;3.35;;;;;;;11.43;77.64;91281.88;5025486;28;20031;-85
2021/08/24 08:19:25;;;;;;;8.10;3.92;;;;;;;11.63;77.54;91279.50;5042998;28;20063;-86
2021/08/24 08:21:52;;;;;;;9.20;3.78;;;;;;;11.80;77.00;91292.38;5007903;28;20025;-86
2021/08/24 08:24:18;;;;;;;7.75;3.22;;;;;;;11.99;76.41;91296.31;5022574;28;20408;-87
2021/08/24 08:26:47;;;;;;;6.60;3.58;;;;;;;12.03;75.17;91302.41;5035669;28;20021;-86
2021/08/24 08:29:16;;;;;;;7.32;3.90;;;;;;;12.17;75.73;91297.63;5057727;28;20108;-86
2021/08/24 08:31:43;;;;;;;8.02;3.80;;;;;;;12.17;75.45;91287.91;5041647;28;20077;-86
2021/08/24 08:34:12;;;;;;;7.88;4.43;;;;;;;12.08;73.81;91310.78;5028089;28;20021;-87
2021/08/24 08:36:45;;;;;;;8.35;4.40;;;;;;;12.29;74.68;91304.66;5021677;28;20478;-85
2021/08/24 08:39:16;;;;;;;9.07;3.70;;;;;;;12.58;74.79;91306.25;5039863;28;20030;-86
2021/08/24 08:42:04;;;;;;;7.55;4.43;;;;;;;12.72;74.52;91296.22;5018372;28;20500;-86
2021/08/24 08:44:52;;;;;;;7.70;4.18;;;;;;;12.71;74.06;91305.16;5023227;28;20017;-85
2021/08/24 08:47:34;;;;;;;7.03;4.10;;;;;;;12.67;73.77;91301.66;5033897;28;20013;-89
2021/08/24 08:50:22;;;;;;;7.50;3.80;;;;;;;12.84;74.62;91298.78;5038881;28;20044;-90
2021/08/24 08:52:55;;;;;;;8.23;3.65;;;;;;;13.22;73.49;91302.81;5033490;28;20021;-88
2021/08/24 08:55:29;;;;;;;8.00;3.78;;;;;;;13.08;71.65;91300.56;5020693;28;20028;-86
2021/08/24 08:57:58;;;;;;;9.65;3.65;;;;;;;12.73;70.97;91297.00;5018136;28;20029;-85
2021/08/24 09:00:27;;;;;;;6.55;3.65;;;;;;;12.92;72.42;91295.28;5015486;28;20040;-86
2021/08/24 09:03:10;;;;;;;8.40;3.30;;;;;;;12.85;71.66;91283.84;5034576;28;20085;-86
2021/08/24 09:05:38;;;;;;;8.20;3.67;;;;;;;12.91;73.69;91287.78;5019647;28;20104;-87
2021/08/24 09:08:08;;;;;;;7.40;3.38;;;;;;;13.08;72.11;91291.97;5018132;28;20021;-86
2021/08/24 09:11:00;;;;;;;6.15;2.90;;;;;;;13.21;69.93;91280.34;5002345;28;20025;-86
2021/08/24 09:13:50;;;;;;;5.68;3.08;;;;;;;13.29;72.19;91274.22;5029045;28;20128;-87
2021/08/24 09:16:30;;;;;;;6.28;2.47;;;;;;;13.57;71.50;91279.44;5019071;28;20025;-86
2021/08/24 09:19:21;;;;;;;4.75;2.72;;;;;;;13.33;70.94;91277.69;5002216;28;20029;-87
2021/08/24 09:21:46;;;;;;;5.65;2.67;;;;;;;13.11;70.05;91280.84;5020934;28;20025;-86
2021/08/24 09:24:14;;;;;;;7.82;3.50;;;;;;;13.32;73.02;91275.41;5019206;28;20446;-87
2021/08/24 09:26:54;;;;;;;4.28;2.40;;;;;;;13.33;70.48;91272.47;5013989;28;20029;-86
2021/08/24 09:29:25;;;;;;;6.10;3.20;;;;;;;13.69;70.70;91262.88;5037122;28;20423;-87
2021/08/24 09:31:51;;;;;;;4.18;2.35;;;;;;;13.69;69.60;91272.59;5020856;28;20025;-86
2021/08/24 09:34:20;;;;;;;5.05;2.40;;;;;;;13.97;70.61;91272.50;5038618;28;20071;-86
2021/08/24 09:36:47;;;;;;;3.75;2.08;;;;;;;14.13;69.36;91273.22;5005452;28;20024;-87
2021/08/24 09:39:13;;;;;;;4.60;2.13;;;;;;;14.09;68.50;91275.00;5037735;28;20405;-86
2021/08/24 09:41:40;;;;;;;3.60;1.98;;;;;;;14.05;68.19;91280.16;5018301;28;20021;-86
2021/08/24 09:44:20;;;;;;;4.45;2.50;;;;;;;14.09;69.80;91275.00;4986399;28;20021;-87
2021/08/24 09:46:49;;;;;;;3.17;2.03;;;;;;;14.34;68.70;91281.56;5035735;28;20099;-86
2021/08/24 09:49:34;;;;;;;6.05;2.30;;;;;;;14.41;66.64;91293.31;5000775;28;20021;-87
2021/08/24 09:52:11;;;;;;;4.68;2.70;;;;;;;14.46;66.51;91291.19;5016851;28;20025;-87
2021/08/24 09:55:02;;;;;;;3.45;1.90;;;;;;;14.00;66.91;91298.03;5000075;28;20474;-86
2021/08/24 09:57:34;;;;;;;3.35;2.25;;;;;;;14.09;67.66;91296.72;5016612;28;20033;-86
2021/08/24 10:00:08;;;;;;;3.72;2.05;;;;;;;14.07;67.29;91298.19;5037410;23;20045;-86
2021/08/24 10:02:48;;;;;;;3.88;2.35;;;;;;;14.39;69.09;91300.78;5015970;28;20028;-85
2021/08/24 10:05:27;;;;;;;5.50;1.88;;;;;;;14.65;67.58;91293.09;5022402;28;20064;-87
2021/08/24 10:08:03;;;;;;;3.83;1.95;;;;;;;14.39;66.76;91290.28;5031212;28;20030;-85
2021/08/24 10:10:34;;;;;;;4.43;2.53;;;;;;;14.43;66.59;91293.75;5011114;28;20030;-84
2021/08/24 10:13:19;;;;;;;3.33;2.38;;;;;;;14.06;67.32;91284.31;5033333;28;20501;-86
2021/08/24 10:15:48;;;;;;;4.07;2.60;;;;;;;14.17;69.39;91292.44;5032504;28;20124;-85
2021/08/24 10:18:25;;;;;;;4.68;2.58;;;;;;;14.20;68.95;91291.72;5020116;28;20060;-85
2021/08/24 10:20:57;;;;;;;4.15;2.42;;;;;;;14.03;69.11;91292.88;5021027;28;20021;-85
2021/08/24 10:23:35;;;;;;;7.22;3.00;;;;;;;14.07;68.81;91298.94;5019829;28;20025;-85
2021/08/24 10:26:04;;;;;;;6.00;3.00;;;;;;;14.11;68.89;91293.78;5016054;28;20061;-88
2021/08/24 10:28:48;;;;;;;9.50;3.55;;;;;;;14.00;68.42;91298.03;5004342;28;20036;-85
2021/08/24 10:31:34;;;;;;;4.93;3.25;;;;;;;14.35;68.50;91306.69;5004643;28;20025;-85
2021/08/24 10:34:30;;;;;;;6.75;3.53;;;;;;;14.12;68.19;91297.91;5031748;28;20032;-86
2021/08/24 10:37:17;;;;;;;6.80;3.25;;;;;;;13.91;69.28;91294.81;5043649;28;20025;-85
2021/08/24 10:39:44;;;;;;;4.78;2.95;;;;;;;13.81;68.67;91302.06;5057533;28;20020;-86
2021/08/24 10:42:15;;;;;;;5.25;3.10;;;;;;;14.11;70.32;91294.53;5022465;28;20469;-86
2021/08/24 10:45:27;;;;;;;6.15;3.30;;;;;;;14.39;69.88;91296.28;5020109;28;20075;-87
2021/08/24 10:47:55;;;;;;;6.95;3.60;;;;;;;14.65;68.83;91300.22;5036738;28;20518;-88
2021/08/24 10:50:37;;;;;;;5.80;3.47;;;;;;;14.73;70.19;91291.38;5016516;28;20117;-88
2021/08/24 10:53:36;;;;;;;5.80;3.60;;;;;;;15.08;67.65;91286.09;4985057;28;20049;-86
2021/08/24 10:56:11;;;;;;;5.88;3.58;;;;;;;15.24;66.20;91294.66;5018257;28;20033;-86
2021/08/24 10:59:00;;;;;;;8.20;4.20;;;;;;;15.32;68.54;91289.53;4984340;28;20026;-87
2021/08/24 11:01:39;;;;;;;5.22;3.22;;;;;;;15.84;67.39;91298.75;5004077;28;20040;-86
2021/08/24 11:04:28;;;;;;;8.10;3.35;;;;;;;16.02;66.82;91289.25;5002498;28;20375;-86
2021/08/24 11:07:35;;;;;;;5.55;3.20;;;;;;;15.90;64.72;91281.53;5018342;28;20029;-87
2021/08/24 11:10:16;;;;;;;7.05;4.05;;;;;;;15.68;66.31;91294.34;5019769;28;20029;-87
2021/08/24 11:13:01;;;;;;;6.22;3.97;;;;;;;16.20;65.46;91298.19;4993307;28;20022;-87
2021/08/24 11:15:38;;;;;;;;;;;;;;;16.21;65.27;91293.69;5016256;28;20055;-87
2021/08/24 11:18:23;;;;;;;6.85;3.50;;;;;;;16.17;66.07;91291.00;4995988;28;19910;-86
2021/08/24 11:21:19;;;;;;;5.90;3.95;;;;;;;16.25;64.62;91294.47;4996596;28;20018;-87
2021/08/24 11:24:07;;;;;;;7.63;4.45;;;;;;;16.45;65.30;91295.91;4996115;28;20493;-86
2021/08/24 11:26:36;;;;;;;7.82;4.45;;;;;;;16.08;63.10;91298.38;5036400;28;20036;-85
2021/08/24 11:29:16;;;;;;;7.18;4.50;;;;;;;16.18;64.95;91297.00;5034604;28;20036;-86
2021/08/24 11:31:52;;;;;;;6.63;4.60;;;;;;;16.11;64.89;91295.03;5035215;28;20086;-85
2021/08/24 11:34:21;;;;;;;6.38;4.18;;;;;;;16.08;63.94;91298.38;5021459;28;20025;-85
2021/08/24 11:36:55;;;;;;;9.50;4.32;;;;;;;15.47;64.59;91307.06;5014903;28;20032;-87
2021/08/24 11:39:27;;;;;;;;;;;;;;;15.49;64.70;91305.63;5016211;28;20081;-86
2021/08/24 11:41:58;;;;;;;14.07;4.78;;;;;;;15.06;65.95;91304.81;5013313;28;20288;-86
2021/08/24 11:44:30;;;;;;;8.05;4.80;;;;;;;14.88;67.99;91303.72;5022969;28;20028;-88
2021/08/24 11:47:10;;;;;;;8.20;5.20;;;;;;;14.75;66.49;91313.56;5050263;28;20021;-86
2021/08/24 11:49:44;;;;;;;8.10;5.40;;;;;;;14.73;67.38;91313.13;5036736;28;20075;-86
2021/08/24 11:52:37;;;;;;;8.68;4.55;;;;;;;14.78;68.56;91310.25;5036764;28;20036;-86
2021/08/24 11:55:12;;;;;;;7.07;4.60;;;;;;;14.60;69.20;91298.63;5035791;28;20025;-86
2021/08/24 11:57:50;;;;;;;7.13;4.63;;;;;;;14.38;68.00;91302.63;5020908;28;20447;-84
2021/08/24 12:00:19;;;;;;;6.80;4.35;;;;;;;14.30;69.68;91306.19;5036171;28;20439;-85
2021/08/24 12:02:48;;;;;;;6.40;4.40;;;;;;;14.18;69.64;91309.66;5021037;28;20028;-85
2021/08/24 12:05:19;;;;;;;6.78;4.38;;;;;;;14.27;70.55;91314.72;5037336;28;20032;-85
2021/08/24 12:07:54;;;;;;;8.60;5.38;;;;;;;14.05;71.31;91301.13;5036975;28;20028;-86
2021/08/24 12:10:33;;;;;;;7.53;4.32;;;;;;;14.48;70.28;91301.31;5020375;28;20128;-87
2021/08/24 12:13:02;;;;;;;6.82;3.92;;;;;;;14.42;71.03;91302.72;5038093;28;20056;-87
2021/08/24 12:15:43;;;;;;;6.38;3.83;;;;;;;14.51;69.88;91305.91;5020906;28;20401;-86
2021/08/24 12:18:19;;;;;;;5.72;3.90;;;;;;;14.57;69.72;91309.81;5021467;28;20025;-87